Klodzko, Poland
Current Conditions -  °F | °C
As of 10:30 AM on Saturday 20 Dec 2014 (Local Time) from EPWR Reporting Station
Clear Clear  
Wind Chill: 38°   Ceiling: Unl
Heat Index: 45°   Visibility: 6mi
Dew Point: 30°   Wind: 15mph
Humidity: 57%   Direction: 260°W
Pressure: 29.97"   Gusts: NA
Location:  50.44°N, 16.66°E
Report Text: EPWR 200830Z 26013KT CAVOK 07/M01 Q1015
Loading
Personal Weather Stations






























Interactive Weather Map New forecast layout! Learn more

10-Day Weather Forecast

Advertisements
Track Severe Weather on mobile